createdAt,value
2022-11-28T00:01:06.350Z,85.20
2022-11-28T00:03:34.932Z,85.14
2022-11-28T00:06:06.060Z,84.79
2022-11-28T00:08:33.942Z,84.21
2022-11-28T00:11:09.803Z,85.12
2022-11-28T00:13:40.145Z,84.80
2022-11-28T00:16:08.639Z,84.89
2022-11-28T00:18:36.779Z,84.92
2022-11-28T00:21:06.404Z,85.32
2022-11-28T00:23:33.532Z,84.82
2022-11-28T00:26:03.254Z,84.64
2022-11-28T00:28:29.919Z,84.67
2022-11-28T00:30:56.521Z,84.72
2022-11-28T00:33:23.659Z,84.91
2022-11-28T00:35:50.307Z,84.82
2022-11-28T00:38:16.936Z,84.50
2022-11-28T00:40:46.590Z,84.68
2022-11-28T00:43:13.358Z,84.12
2022-11-28T00:45:39.959Z,84.43
2022-11-28T00:48:06.678Z,83.94
2022-11-28T00:50:33.256Z,84.15
2022-11-28T00:53:00.244Z,84.24
2022-11-28T00:55:28.803Z,84.34
2022-11-28T00:57:55.439Z,84.43
2022-11-28T01:00:22.604Z,84.23
2022-11-28T01:02:49.983Z,84.49
2022-11-28T01:05:16.790Z,83.95
2022-11-28T01:07:43.458Z,83.77
2022-11-28T01:10:12.561Z,84.13
2022-11-28T01:12:39.192Z,84.60
2022-11-28T01:15:09.586Z,84.35
2022-11-28T01:17:36.595Z,84.22
2022-11-28T01:20:06.490Z,84.01
2022-11-28T01:22:33.092Z,83.96
2022-11-28T01:24:59.937Z,84.01
2022-11-28T01:27:26.673Z,83.81
2022-11-28T01:29:53.397Z,84.03
2022-11-28T01:32:20.027Z,83.81
2022-11-28T01:34:46.606Z,83.93
2022-11-28T01:37:13.176Z,83.83
2022-11-28T01:39:40.545Z,83.63
2022-11-28T01:42:07.128Z,83.59
2022-11-28T01:44:33.640Z,83.20
2022-11-28T01:47:00.270Z,83.34
2022-11-28T01:49:37.573Z,83.17
2022-11-28T01:52:14.753Z,83.11
2022-11-28T01:54:44.304Z,83.18
2022-11-28T01:57:20.396Z,83.24
2022-11-28T01:59:53.940Z,83.30
2022-11-28T02:02:29.035Z,83.02
2022-11-28T02:04:55.731Z,83.30
2022-11-28T02:07:22.456Z,84.05
2022-11-28T02:09:49.137Z,83.50
2022-11-28T02:12:41.985Z,83.59
2022-11-28T02:15:24.231Z,83.12
2022-11-28T02:18:08.687Z,82.61
2022-11-28T02:20:52.142Z,82.61
2022-11-28T02:23:36.809Z,82.78
2022-11-28T02:26:41.640Z,82.58
2022-11-28T02:29:37.529Z,83.07
2022-11-28T02:32:13.836Z,82.89
2022-11-28T02:34:47.031Z,82.58
2022-11-28T02:37:36.916Z,83.01
2022-11-28T02:40:29.349Z,82.69
2022-11-28T02:43:17.888Z,82.78
2022-11-28T02:46:20.598Z,83.19
2022-11-28T02:49:03.263Z,82.97
2022-11-28T02:51:40.878Z,83.01
2022-11-28T02:54:12.017Z,82.60
2022-11-28T02:56:38.633Z,82.58
2022-11-28T02:59:25.287Z,82.65
2022-11-28T03:01:52.063Z,82.78
2022-11-28T03:04:18.528Z,83.30
2022-11-28T03:07:13.016Z,83.22
2022-11-28T03:10:13.187Z,83.18
2022-11-28T03:13:00.667Z,83.01
2022-11-28T03:15:43.261Z,82.68
2022-11-28T03:18:09.801Z,82.50
2022-11-28T03:20:53.218Z,82.06
2022-11-28T03:23:25.138Z,82.94
2022-11-28T03:25:59.305Z,83.23
2022-11-28T03:28:43.376Z,83.07
2022-11-28T03:31:19.519Z,82.88
2022-11-28T03:33:52.349Z,82.98
2022-11-28T03:36:24.152Z,82.94
2022-11-28T03:39:00.087Z,82.68
2022-11-28T03:41:36.316Z,82.94
2022-11-28T03:44:05.866Z,82.84
2022-11-28T03:46:41.802Z,82.69
2022-11-28T03:49:09.650Z,83.11
2022-11-28T03:51:48.181Z,82.96
2022-11-28T03:54:37.481Z,82.86
2022-11-28T03:57:15.636Z,82.68
2022-11-28T03:59:47.532Z,82.90
2022-11-28T04:02:36.287Z,83.01
2022-11-28T04:05:18.057Z,83.07
2022-11-28T04:07:55.761Z,83.61
2022-11-28T04:11:01.016Z,82.76
2022-11-28T04:13:34.846Z,83.18
2022-11-28T04:16:06.434Z,83.30
2022-11-28T04:18:43.517Z,82.84
2022-11-28T04:21:19.049Z,82.88
2022-11-28T04:23:48.112Z,82.95
2022-11-28T04:26:23.250Z,83.05
2022-11-28T04:28:52.381Z,82.90
2022-11-28T04:31:22.818Z,83.71
2022-11-28T04:33:56.345Z,83.00
2022-11-28T04:36:26.028Z,82.77
2022-11-28T04:38:56.605Z,82.88
2022-11-28T04:41:34.435Z,82.79
2022-11-28T04:44:17.824Z,82.54
2022-11-28T04:46:48.529Z,82.87
2022-11-28T04:49:15.390Z,83.00
2022-11-28T04:52:01.477Z,83.16
2022-11-28T04:55:04.916Z,83.26
2022-11-28T04:57:50.680Z,83.08
2022-11-28T05:00:22.339Z,83.00
2022-11-28T05:02:52.533Z,83.18
2022-11-28T05:05:23.299Z,83.32
2022-11-28T05:07:50.002Z,83.38
2022-11-28T05:10:17.852Z,83.71
2022-11-28T05:12:44.449Z,83.96
2022-11-28T05:15:12.321Z,83.58
2022-11-28T05:17:42.436Z,83.53
2022-11-28T05:20:09.707Z,83.55
2022-11-28T05:22:36.308Z,83.30
2022-11-28T05:25:03.108Z,83.66
2022-11-28T05:27:29.791Z,83.36
2022-11-28T05:29:56.397Z,83.63
2022-11-28T05:32:23.505Z,83.35
2022-11-28T05:34:50.086Z,83.67
2022-11-28T05:37:16.628Z,83.99
2022-11-28T05:39:43.298Z,83.86
2022-11-28T05:42:10.108Z,83.91
2022-11-28T05:44:37.566Z,84.10
2022-11-28T05:47:04.311Z,83.92
2022-11-28T05:49:30.931Z,84.14
2022-11-28T05:51:57.529Z,83.89
2022-11-28T05:54:24.209Z,83.57
2022-11-28T05:56:50.827Z,83.50
2022-11-28T05:59:17.403Z,83.79
2022-11-28T06:01:44.195Z,83.54
2022-11-28T06:04:10.823Z,82.97
2022-11-28T06:06:37.471Z,83.23
2022-11-28T06:09:06.572Z,83.12
2022-11-28T06:11:34.461Z,82.58
2022-11-28T06:14:03.096Z,83.24
2022-11-28T06:16:31.826Z,83.01
2022-11-28T06:19:01.587Z,83.38
2022-11-28T06:21:29.738Z,83.70
2022-11-28T06:24:00.664Z,83.08
2022-11-28T06:26:28.760Z,83.64
2022-11-28T06:28:55.813Z,83.63
2022-11-28T06:31:25.562Z,83.20
2022-11-28T06:33:52.177Z,82.51
2022-11-28T06:36:19.484Z,82.58
2022-11-28T06:38:46.664Z,82.73
2022-11-28T06:41:16.260Z,83.07
2022-11-28T06:43:43.134Z,82.70
2022-11-28T06:46:16.453Z,83.06
2022-11-28T06:48:43.802Z,82.36
2022-11-28T06:51:11.356Z,82.11
2022-11-28T06:53:38.716Z,81.88
2022-11-28T06:56:07.978Z,81.53
2022-11-28T06:58:35.350Z,81.71
2022-11-28T07:01:11.776Z,81.25
2022-11-28T07:03:39.454Z,80.65
2022-11-28T07:06:06.996Z,81.06
2022-11-28T07:08:34.678Z,81.40
2022-11-28T07:11:14.561Z,80.45
2022-11-28T07:13:43.563Z,80.26
2022-11-28T07:16:16.784Z,80.79
2022-11-28T07:18:44.057Z,80.66
2022-11-28T07:21:12.430Z,80.85
2022-11-28T07:23:38.992Z,80.72
2022-11-28T07:26:06.093Z,81.04
2022-11-28T07:28:34.896Z,80.17
2022-11-28T07:31:07.668Z,80.38
2022-11-28T07:33:35.358Z,80.15
2022-11-28T07:36:04.126Z,79.57
2022-11-28T07:38:31.194Z,80.15
2022-11-28T07:41:12.272Z,80.18
2022-11-28T07:43:40.023Z,79.18
2022-11-28T07:46:09.166Z,79.13
2022-11-28T07:48:37.169Z,79.78
2022-11-28T07:51:14.057Z,78.53
2022-11-28T07:53:41.047Z,78.68
2022-11-28T07:56:15.231Z,79.20
2022-11-28T07:58:43.871Z,79.38
2022-11-28T08:01:19.036Z,79.23
2022-11-28T08:03:46.662Z,78.67
2022-11-28T08:06:14.577Z,79.60
2022-11-28T08:08:41.466Z,79.50
2022-11-28T08:11:10.088Z,79.88
2022-11-28T08:13:39.963Z,78.95
2022-11-28T08:16:09.078Z,77.96
2022-11-28T08:18:37.043Z,78.43
2022-11-28T08:21:26.197Z,78.92
2022-11-28T08:23:54.634Z,79.05
2022-11-28T08:26:27.497Z,78.69
2022-11-28T08:28:58.918Z,78.37
2022-11-28T08:31:29.285Z,78.96
2022-11-28T08:33:58.253Z,79.15
2022-11-28T08:36:28.296Z,78.68
2022-11-28T08:41:43.612Z,78.89
2022-11-28T08:44:10.190Z,79.05
2022-11-28T08:46:37.047Z,78.35
2022-11-28T08:49:04.803Z,78.18
2022-11-28T08:51:31.920Z,79.17
2022-11-28T08:54:01.189Z,78.81
2022-11-28T08:56:28.832Z,78.53
2022-11-28T08:58:55.852Z,78.36
2022-11-28T09:01:24.541Z,78.33
2022-11-28T09:03:52.579Z,78.31
2022-11-28T09:06:20.953Z,77.91
2022-11-28T09:08:48.122Z,78.25
2022-11-28T09:11:17.644Z,77.94
2022-11-28T09:13:51.158Z,78.38
2022-11-28T09:16:20.700Z,78.09
2022-11-28T09:18:47.357Z,78.80
2022-11-28T09:21:15.375Z,78.68
2022-11-28T09:23:44.630Z,78.39
2022-11-28T09:26:16.042Z,77.93
2022-11-28T09:28:43.260Z,78.90
2022-11-28T09:31:12.133Z,79.00
2022-11-28T09:33:38.870Z,79.19
2022-11-28T09:36:15.004Z,78.75
2022-11-28T09:38:42.229Z,78.63
2022-11-28T09:41:40.657Z,78.49
2022-11-28T09:44:36.336Z,78.25
2022-11-28T09:47:09.066Z,78.17
2022-11-28T09:53:24.911Z,78.43
2022-11-28T09:55:57.665Z,79.00
2022-11-28T09:58:45.941Z,77.97
2022-11-28T10:01:21.379Z,77.99
2022-11-28T10:04:09.143Z,78.02
2022-11-28T10:07:02.423Z,78.11
2022-11-28T10:09:34.763Z,78.11
2022-11-28T10:12:29.137Z,78.22
2022-11-28T10:15:18.189Z,78.30
2022-11-28T10:18:06.107Z,77.72
2022-11-28T10:20:46.097Z,78.86
2022-11-28T10:23:36.850Z,78.75
2022-11-28T10:26:09.756Z,78.62
2022-11-28T10:28:43.941Z,79.29
2022-11-28T10:31:23.168Z,79.63
2022-11-28T10:33:58.918Z,78.99
2022-11-28T10:36:34.980Z,79.24
2022-11-28T10:39:11.369Z,78.76
2022-11-28T10:42:07.992Z,78.64
2022-11-28T10:44:44.729Z,79.03
2022-11-28T10:47:28.897Z,79.12
2022-11-28T10:50:06.721Z,77.98
2022-11-28T10:52:46.847Z,77.72
2022-11-28T10:55:53.451Z,78.91
2022-11-28T10:58:23.000Z,78.49
2022-11-28T11:00:53.575Z,78.49
2022-11-28T11:03:28.270Z,77.54
2022-11-28T11:05:54.863Z,77.31
2022-11-28T11:08:31.032Z,77.12
2022-11-28T11:11:28.734Z,78.52
2022-11-28T11:13:58.918Z,77.76
2022-11-28T11:16:59.009Z,77.36
2022-11-28T11:19:32.875Z,77.08
2022-11-28T11:22:16.054Z,77.62
2022-11-28T11:24:42.709Z,77.16
2022-11-28T11:27:21.942Z,77.15
2022-11-28T11:30:00.391Z,77.49
2022-11-28T11:32:30.018Z,77.83
2022-11-28T11:35:02.697Z,76.88
2022-11-28T11:37:33.662Z,77.60
2022-11-28T11:40:02.437Z,77.15
2022-11-28T11:42:32.099Z,77.64
2022-11-28T11:45:27.300Z,76.62
2022-11-28T11:47:53.971Z,76.53
2022-11-28T11:50:55.569Z,76.75
2022-11-28T11:53:22.966Z,76.02
2022-11-28T11:55:52.918Z,76.52
2022-11-28T11:58:25.465Z,76.68
2022-11-28T12:00:56.211Z,76.48
2022-11-28T12:03:53.760Z,76.64
2022-11-28T12:06:25.569Z,77.26
2022-11-28T12:09:07.457Z,77.88
2022-11-28T12:11:50.855Z,77.82
2022-11-28T12:14:37.309Z,78.03
2022-11-28T12:17:51.416Z,78.20
2022-11-28T12:20:50.908Z,78.21
2022-11-28T12:23:43.881Z,78.10
2022-11-28T12:26:35.566Z,78.81
2022-11-28T12:29:09.426Z,79.06
2022-11-28T12:31:43.560Z,79.13
2022-11-28T12:34:34.394Z,79.45
2022-11-28T12:37:02.202Z,79.28
2022-11-28T12:39:49.828Z,79.89
2022-11-28T12:42:28.190Z,79.79
2022-11-28T12:45:13.439Z,80.02
2022-11-28T12:47:50.581Z,79.60
2022-11-28T12:50:25.068Z,79.77
2022-11-28T12:52:51.605Z,79.71
2022-11-28T12:55:51.887Z,80.00
2022-11-28T12:58:25.211Z,79.33
2022-11-28T13:01:08.923Z,79.43
2022-11-28T13:03:53.868Z,79.56
2022-11-28T13:06:32.251Z,79.45
2022-11-28T13:09:11.218Z,79.38
2022-11-28T13:12:15.424Z,80.20
2022-11-28T13:14:57.428Z,80.37
2022-11-28T13:17:43.933Z,80.68
2022-11-28T13:20:36.006Z,81.19
2022-11-28T13:23:28.602Z,81.26
2022-11-28T13:26:09.283Z,81.63
2022-11-28T13:28:47.898Z,81.60
2022-11-28T13:31:24.129Z,81.79
2022-11-28T13:33:56.010Z,81.23
2022-11-28T13:39:47.107Z,81.17
2022-11-28T13:43:02.436Z,81.33
2022-11-28T13:45:32.206Z,81.15
2022-11-28T13:48:01.223Z,81.04
2022-11-28T13:50:39.283Z,81.50
2022-11-28T13:53:10.479Z,81.10
2022-11-28T13:55:46.983Z,80.90
2022-11-28T13:58:19.474Z,81.05
2022-11-28T14:01:17.859Z,81.21
2022-11-28T14:03:49.383Z,80.82
2022-11-28T14:06:28.371Z,80.84
2022-11-28T14:09:17.132Z,80.79
2022-11-28T14:11:52.506Z,80.42
2022-11-28T14:14:31.491Z,80.47
2022-11-28T14:17:23.688Z,80.09
2022-11-28T14:20:14.252Z,79.97
2022-11-28T14:23:11.588Z,79.72
2022-11-28T14:25:45.748Z,80.38
2022-11-28T14:28:37.750Z,80.78
2022-11-28T14:31:30.403Z,80.84
2022-11-28T14:33:59.838Z,80.56
2022-11-28T14:36:41.872Z,81.16
2022-11-28T14:39:14.611Z,80.49
2022-11-28T14:42:03.401Z,81.06
2022-11-28T14:44:50.522Z,80.23
2022-11-28T14:47:35.647Z,80.83
2022-11-28T14:50:05.233Z,80.45
2022-11-28T14:52:40.708Z,80.24
2022-11-28T14:55:10.968Z,80.83
2022-11-28T14:57:51.350Z,80.90
2022-11-28T15:00:28.602Z,80.73
2022-11-28T15:03:04.374Z,80.70
2022-11-28T15:05:44.698Z,80.74
2022-11-28T15:08:32.642Z,80.93
2022-11-28T15:10:59.317Z,80.87
2022-11-28T15:13:28.557Z,80.08
2022-11-28T15:16:06.520Z,80.56
2022-11-28T15:18:34.158Z,80.55
2022-11-28T15:21:05.587Z,80.30
2022-11-28T15:23:39.174Z,80.40
2022-11-28T15:26:06.902Z,79.93
2022-11-28T15:28:35.612Z,80.61
2022-11-28T15:31:05.773Z,80.88
2022-11-28T15:33:33.724Z,81.11
2022-11-28T15:36:24.484Z,80.79
2022-11-28T15:38:57.493Z,80.71
2022-11-28T15:41:27.444Z,80.58
2022-11-28T15:43:56.405Z,80.56
2022-11-28T15:46:45.819Z,81.14
2022-11-28T15:49:26.532Z,80.96
2022-11-28T15:52:06.760Z,80.80
2022-11-28T15:54:48.417Z,80.92
2022-11-28T15:57:21.328Z,81.25
2022-11-28T15:59:47.978Z,81.77
2022-11-28T16:02:34.007Z,81.42
2022-11-28T16:05:21.341Z,81.43
2022-11-28T16:07:50.936Z,81.57
2022-11-28T16:10:35.049Z,81.52
2022-11-28T16:13:09.611Z,81.40
2022-11-28T16:15:37.082Z,81.89
2022-11-28T16:18:03.986Z,81.83
2022-11-28T16:20:36.741Z,81.58
2022-11-28T16:23:23.551Z,81.79
2022-11-28T16:26:01.506Z,81.95
2022-11-28T16:28:59.944Z,82.10
2022-11-28T16:31:28.425Z,81.93
2022-11-28T16:33:55.509Z,81.64
2022-11-28T16:36:24.620Z,81.59
2022-11-28T16:39:04.853Z,81.38
2022-11-28T16:41:32.230Z,80.82
2022-11-28T16:44:18.800Z,80.47
2022-11-28T16:46:57.659Z,80.17
2022-11-28T16:49:30.387Z,80.57
2022-11-28T16:52:28.973Z,80.50
2022-11-28T16:54:56.544Z,80.72
2022-11-28T16:57:26.513Z,81.07
2022-11-28T16:59:56.744Z,81.11
2022-11-28T17:02:28.349Z,81.23
2022-11-28T17:04:54.914Z,81.44
2022-11-28T17:07:23.568Z,81.63
2022-11-28T17:09:51.549Z,81.70
2022-11-28T17:12:29.882Z,82.09
2022-11-28T17:14:59.149Z,82.50
2022-11-28T17:17:26.067Z,82.18
2022-11-28T17:19:52.881Z,82.68
2022-11-28T17:22:25.662Z,83.23
2022-11-28T17:24:59.494Z,82.95
2022-11-28T17:27:26.150Z,82.46
2022-11-28T17:29:52.712Z,83.20
2022-11-28T17:32:19.324Z,83.08
2022-11-28T17:34:46.243Z,83.41
2022-11-28T17:37:13.393Z,84.12
2022-11-28T17:39:40.036Z,83.85
2022-11-28T17:42:06.685Z,84.33
2022-11-28T17:44:37.683Z,84.40
2022-11-28T17:47:04.393Z,84.50
2022-11-28T17:49:31.228Z,84.61
2022-11-28T17:51:57.938Z,84.25
2022-11-28T17:54:28.662Z,84.29
2022-11-28T17:56:55.725Z,84.24
2022-11-28T17:59:25.668Z,84.91
2022-11-28T18:01:52.345Z,84.74
2022-11-28T18:04:19.504Z,85.05
2022-11-28T18:06:47.437Z,84.97
2022-11-28T18:09:14.851Z,84.95
2022-11-28T18:11:42.609Z,84.61
2022-11-28T18:14:10.010Z,84.99
2022-11-28T18:16:39.689Z,85.17
2022-11-28T18:19:06.392Z,84.63
2022-11-28T18:21:33.917Z,84.71
2022-11-28T18:24:00.517Z,84.97
2022-11-28T18:26:27.318Z,85.01
2022-11-28T18:28:55.733Z,84.82
2022-11-28T18:31:25.647Z,85.55
2022-11-28T18:33:57.368Z,85.54
2022-11-28T18:36:27.549Z,85.26
2022-11-28T18:38:55.895Z,84.95
2022-11-28T18:41:22.506Z,85.25
2022-11-28T18:43:49.166Z,85.49
2022-11-28T18:46:19.161Z,85.70
2022-11-28T18:48:47.610Z,85.43
2022-11-28T18:51:22.887Z,85.55
2022-11-28T18:53:50.853Z,84.94
2022-11-28T18:56:18.058Z,85.32
2022-11-28T18:58:47.761Z,84.80
2022-11-28T19:01:15.757Z,84.82
2022-11-28T19:03:43.377Z,85.04
2022-11-28T19:06:12.798Z,85.06
2022-11-28T19:08:40.261Z,85.13
2022-11-28T19:11:11.461Z,84.70
2022-11-28T19:13:42.223Z,84.39
2022-11-28T19:16:11.493Z,85.08
2022-11-28T19:18:39.591Z,85.34
2022-11-28T19:21:08.241Z,85.39
2022-11-28T19:23:35.468Z,84.90
2022-11-28T19:26:07.560Z,84.97
2022-11-28T19:28:38.720Z,84.74
2022-11-28T19:31:15.225Z,85.21
2022-11-28T19:33:44.201Z,84.91
2022-11-28T19:36:12.995Z,85.13
2022-11-28T19:38:40.168Z,84.58
2022-11-28T19:41:14.690Z,84.62
2022-11-28T19:43:42.166Z,84.47
2022-11-28T19:46:10.423Z,84.30
2022-11-28T19:48:39.056Z,84.33
2022-11-28T19:51:06.674Z,84.57
2022-11-28T19:53:35.297Z,84.38
2022-11-28T19:56:08.011Z,84.49
2022-11-28T19:58:35.582Z,84.51
2022-11-28T20:01:16.655Z,84.44
2022-11-28T20:03:44.151Z,84.45
2022-11-28T20:06:31.430Z,84.52
2022-11-28T20:09:01.298Z,84.29
2022-11-28T20:11:34.901Z,84.76
2022-11-28T20:14:07.982Z,84.32
2022-11-28T20:16:35.915Z,84.36
2022-11-28T20:19:03.156Z,84.37
2022-11-28T20:21:30.606Z,85.03
2022-11-28T20:24:02.720Z,84.73
2022-11-28T20:26:30.112Z,84.10
2022-11-28T20:28:57.055Z,85.13
2022-11-28T20:31:27.934Z,84.77
2022-11-28T20:33:54.932Z,84.61
2022-11-28T20:36:24.649Z,85.04
2022-11-28T20:38:52.668Z,84.63
2022-11-28T20:41:20.743Z,84.74
2022-11-28T20:43:47.381Z,85.02
2022-11-28T20:46:19.185Z,84.78
2022-11-28T20:48:46.214Z,84.78
2022-11-28T20:51:25.026Z,84.79
2022-11-28T20:53:52.657Z,84.86
2022-11-28T20:56:24.995Z,84.86
2022-11-28T20:58:53.289Z,85.13
2022-11-28T21:01:22.506Z,84.68
2022-11-28T21:03:50.251Z,84.53
2022-11-28T21:06:17.226Z,84.84
2022-11-28T21:08:43.986Z,85.14
2022-11-28T21:11:30.981Z,85.31
2022-11-28T21:14:05.725Z,85.43
2022-11-28T21:16:34.044Z,84.94
2022-11-28T21:19:07.037Z,85.42
2022-11-28T21:21:34.441Z,85.11
2022-11-28T21:24:04.042Z,85.47
2022-11-28T21:26:33.054Z,85.47
2022-11-28T21:29:06.583Z,85.74
2022-11-28T21:31:37.144Z,85.76
2022-11-28T21:34:03.922Z,85.42
2022-11-28T21:36:31.352Z,85.30
2022-11-28T21:39:00.603Z,84.66
2022-11-28T21:41:32.006Z,85.28
2022-11-28T21:44:00.167Z,85.20
2022-11-28T21:46:27.674Z,84.88
2022-11-28T21:48:54.507Z,84.62
2022-11-28T21:51:23.717Z,84.99
2022-11-28T21:53:51.161Z,84.66
2022-11-28T21:56:18.317Z,84.97
2022-11-28T21:58:45.015Z,84.95
2022-11-28T22:01:14.278Z,85.10
2022-11-28T22:03:41.891Z,85.35
2022-11-28T22:06:14.834Z,85.29
2022-11-28T22:08:41.394Z,85.25
2022-11-28T22:11:13.287Z,85.70
2022-11-28T22:13:46.060Z,84.83
2022-11-28T22:16:20.271Z,86.05
2022-11-28T22:18:48.332Z,85.45
2022-11-28T22:24:06.760Z,86.05
2022-11-28T22:26:33.820Z,85.32
2022-11-28T22:29:01.109Z,86.07
2022-11-28T22:31:28.181Z,86.24
2022-11-28T22:33:54.812Z,86.11
2022-11-28T22:36:22.514Z,85.80
2022-11-28T22:38:53.657Z,85.89
2022-11-28T22:41:27.822Z,85.20
2022-11-28T22:43:57.198Z,84.86
2022-11-28T22:46:23.893Z,84.86
2022-11-28T22:48:51.956Z,84.69
2022-11-28T22:51:23.567Z,85.05
2022-11-28T22:53:55.190Z,84.69
2022-11-28T22:56:22.254Z,84.57
2022-11-28T22:58:48.981Z,84.20
2022-11-28T23:01:18.731Z,84.92
2022-11-28T23:03:46.395Z,84.36
2022-11-28T23:06:21.149Z,84.59
2022-11-28T23:08:48.425Z,85.00
2022-11-28T23:11:20.309Z,84.44
2022-11-28T23:13:49.876Z,84.96
2022-11-28T23:16:26.243Z,85.07
2022-11-28T23:18:55.438Z,84.95
2022-11-28T23:21:23.976Z,85.36
2022-11-28T23:23:50.865Z,85.74
2022-11-28T23:26:21.749Z,85.58
2022-11-28T23:28:49.275Z,85.32
2022-11-28T23:31:19.210Z,85.29
2022-11-28T23:33:46.539Z,84.56
2022-11-28T23:36:16.136Z,84.41
2022-11-28T23:38:43.871Z,84.67
2022-11-28T23:41:12.198Z,85.05
2022-11-28T23:43:38.969Z,85.20
2022-11-28T23:46:06.992Z,85.14
2022-11-28T23:48:34.026Z,84.89
2022-11-28T23:51:00.708Z,85.40
2022-11-28T23:53:27.457Z,85.48
2022-11-28T23:55:54.977Z,84.96
2022-11-28T23:58:21.570Z,84.84
